createdAt,value
2018-06-12T00:00:37.350Z,71.47
2018-06-12T00:03:41.709Z,71.09
2018-06-12T00:06:46.085Z,70.75
2018-06-12T00:09:50.453Z,71.10
2018-06-12T00:12:54.827Z,72.10
2018-06-12T00:15:59.208Z,71.31
2018-06-12T00:19:03.580Z,71.54
2018-06-12T00:22:07.955Z,71.73
2018-06-12T00:25:12.374Z,72.08
2018-06-12T00:28:16.712Z,73.36
2018-06-12T00:31:21.097Z,73.35
2018-06-12T00:34:25.487Z,73.61
2018-06-12T00:37:29.861Z,72.98
2018-06-12T00:40:34.201Z,74.13
2018-06-12T00:43:39.478Z,73.31
2018-06-12T00:46:43.869Z,73.60
2018-06-12T00:49:48.394Z,73.64
2018-06-12T00:52:52.788Z,72.90
2018-06-12T00:55:57.166Z,72.91
2018-06-12T00:59:01.543Z,73.99
2018-06-12T01:02:06.316Z,73.00
2018-06-12T01:05:10.705Z,73.94
2018-06-12T01:08:15.069Z,73.54
2018-06-12T01:11:19.440Z,73.41
2018-06-12T01:14:23.811Z,73.84
2018-06-12T01:17:28.221Z,73.13
2018-06-12T01:20:32.574Z,74.04
2018-06-12T01:23:36.952Z,73.55
2018-06-12T01:26:41.328Z,74.03
2018-06-12T01:29:45.696Z,73.72
2018-06-12T01:32:50.061Z,73.46
2018-06-12T01:35:54.448Z,73.47
2018-06-12T01:38:58.833Z,73.56
2018-06-12T01:42:03.192Z,73.45
2018-06-12T01:45:07.564Z,73.24
2018-06-12T01:48:11.921Z,73.65
2018-06-12T01:51:16.308Z,72.90
2018-06-12T01:54:20.712Z,72.30
2018-06-12T01:57:25.076Z,72.26
2018-06-12T02:00:29.493Z,72.29
2018-06-12T02:03:33.841Z,71.82
2018-06-12T02:06:38.209Z,71.92
2018-06-12T02:09:42.637Z,72.28
2018-06-12T02:12:46.997Z,71.25
2018-06-12T02:15:51.394Z,72.39
2018-06-12T02:18:55.740Z,73.05
2018-06-12T02:22:00.125Z,72.56
2018-06-12T02:25:04.534Z,73.27
2018-06-12T02:28:08.883Z,73.35
2018-06-12T02:31:13.257Z,73.60
2018-06-12T02:34:17.618Z,72.75
2018-06-12T02:37:22.012Z,73.47
2018-06-12T02:40:26.397Z,73.40
2018-06-12T02:43:30.766Z,73.80
2018-06-12T02:46:35.145Z,73.99
2018-06-12T02:49:39.265Z,74.29
2018-06-12T02:52:43.647Z,73.08
2018-06-12T02:55:48.017Z,73.36
2018-06-12T02:58:52.428Z,72.77
2018-06-12T03:02:00.631Z,72.76
2018-06-12T03:05:05.098Z,73.22
2018-06-12T03:08:09.475Z,73.38
2018-06-12T03:11:13.914Z,73.03
2018-06-12T03:14:18.278Z,72.87
2018-06-12T03:17:22.653Z,72.66
2018-06-12T03:20:46.182Z,72.33
2018-06-12T03:23:50.540Z,72.90
2018-06-12T03:26:54.945Z,71.99
2018-06-12T03:29:59.321Z,71.43
2018-06-12T03:33:03.721Z,72.22
2018-06-12T03:36:08.085Z,70.93
2018-06-12T03:39:12.447Z,70.87
2018-06-12T03:42:16.852Z,71.88
2018-06-12T03:45:21.241Z,72.32
2018-06-12T03:48:25.656Z,72.40
2018-06-12T03:51:30.030Z,71.60
2018-06-12T03:54:34.406Z,71.68
2018-06-12T03:57:38.780Z,72.22
2018-06-12T04:00:43.177Z,71.67
2018-06-12T04:03:47.541Z,72.24
2018-06-12T04:06:51.913Z,71.83
2018-06-12T04:09:56.253Z,72.19
2018-06-12T04:13:00.649Z,72.20
2018-06-12T04:16:05.004Z,71.59
2018-06-12T04:19:09.369Z,72.67
2018-06-12T04:22:13.737Z,73.35
2018-06-12T04:25:18.117Z,73.06
2018-06-12T04:28:22.464Z,71.94
2018-06-12T04:31:26.832Z,72.32
2018-06-12T04:34:31.190Z,72.59
2018-06-12T04:37:35.581Z,72.40
2018-06-12T04:40:39.944Z,72.25
2018-06-12T04:43:44.316Z,72.61
2018-06-12T04:46:48.691Z,73.39
2018-06-12T04:49:53.066Z,73.56
2018-06-12T04:52:57.429Z,73.71
2018-06-12T04:56:01.816Z,73.47
2018-06-12T04:59:06.165Z,73.29
2018-06-12T05:02:10.518Z,73.75
2018-06-12T05:05:14.897Z,73.10
2018-06-12T05:08:19.272Z,73.21
2018-06-12T05:11:23.376Z,73.62
2018-06-12T05:14:27.786Z,73.22
2018-06-12T05:17:32.160Z,73.32
2018-06-12T05:20:36.517Z,73.33
2018-06-12T05:23:40.901Z,72.65
2018-06-12T05:26:45.820Z,72.52
2018-06-12T05:29:50.204Z,72.56
2018-06-12T05:32:54.565Z,71.71
2018-06-12T05:35:58.928Z,72.19
2018-06-12T05:39:03.373Z,72.09
2018-06-12T05:42:07.737Z,71.54
2018-06-12T05:45:12.093Z,71.14
2018-06-12T05:48:16.457Z,71.54
2018-06-12T05:51:20.840Z,70.93
2018-06-12T05:54:25.192Z,71.01
2018-06-12T05:57:29.577Z,70.58
2018-06-12T06:00:33.942Z,70.80
2018-06-12T06:03:38.317Z,70.08
2018-06-12T06:06:42.678Z,70.44
2018-06-12T06:09:47.057Z,70.43
2018-06-12T06:12:51.450Z,70.37
2018-06-12T06:15:55.828Z,70.32
2018-06-12T06:19:00.173Z,71.50
2018-06-12T06:22:04.552Z,71.41
2018-06-12T06:25:08.937Z,70.25
2018-06-12T06:28:13.290Z,70.08
2018-06-12T06:31:17.689Z,71.58
2018-06-12T06:34:22.081Z,69.61
2018-06-12T06:37:26.444Z,71.08
2018-06-12T06:40:30.829Z,69.56
2018-06-12T06:43:35.268Z,69.04
2018-06-12T06:46:39.621Z,69.92
2018-06-12T06:49:44.006Z,70.51
2018-06-12T06:52:48.430Z,70.13
2018-06-12T06:55:52.844Z,70.39
2018-06-12T06:58:57.231Z,70.38
2018-06-12T07:02:01.613Z,70.05
2018-06-12T07:05:06.009Z,69.33
2018-06-12T07:08:10.383Z,68.83
2018-06-12T07:11:14.833Z,69.87
2018-06-12T07:14:19.204Z,70.31
2018-06-12T07:17:23.568Z,70.71
2018-06-12T07:21:31.314Z,70.36
2018-06-12T07:24:35.682Z,71.69
2018-06-12T07:27:40.028Z,72.87
2018-06-12T07:30:44.421Z,71.45
2018-06-12T07:33:48.788Z,70.49
2018-06-12T07:36:53.156Z,70.49
2018-06-12T07:39:57.521Z,70.91
2018-06-12T07:43:01.936Z,69.81
2018-06-12T07:46:06.417Z,71.15
2018-06-12T07:49:10.785Z,71.17
2018-06-12T07:52:15.158Z,71.31
2018-06-12T07:55:19.549Z,72.04
2018-06-12T07:58:23.925Z,71.89
2018-06-12T08:01:28.292Z,72.81
2018-06-12T08:04:32.669Z,72.69
2018-06-12T08:07:37.050Z,74.04
2018-06-12T08:10:41.409Z,75.01
2018-06-12T08:13:45.821Z,76.00
2018-06-12T08:16:50.192Z,74.51
2018-06-12T08:19:54.308Z,73.76
2018-06-12T08:22:58.682Z,73.39
2018-06-12T08:26:03.058Z,73.73
2018-06-12T08:29:07.535Z,72.92
2018-06-12T08:32:11.934Z,73.33
2018-06-12T08:35:16.289Z,73.64
2018-06-12T08:38:20.671Z,74.59
2018-06-12T08:41:25.042Z,74.35
2018-06-12T08:44:29.443Z,74.73
2018-06-12T08:47:33.811Z,73.27
2018-06-12T08:50:38.208Z,72.88
2018-06-12T08:53:42.605Z,73.04
2018-06-12T08:56:46.957Z,72.86
2018-06-12T08:59:51.429Z,73.62
2018-06-12T09:02:55.820Z,72.95
2018-06-12T09:06:00.239Z,72.47
2018-06-12T09:09:06.152Z,70.82
2018-06-12T09:12:10.546Z,71.73
2018-06-12T09:15:14.965Z,70.79
2018-06-12T09:18:19.373Z,71.33
2018-06-12T09:21:23.786Z,71.01
2018-06-12T09:24:28.176Z,71.81
2018-06-12T09:27:37.750Z,70.70
2018-06-12T09:30:42.142Z,69.88
2018-06-12T09:33:46.513Z,69.73
2018-06-12T09:36:51.013Z,69.02
2018-06-12T09:39:55.472Z,68.77
2018-06-12T09:42:59.862Z,68.61
2018-06-12T09:46:04.245Z,68.83
2018-06-12T09:49:08.683Z,68.22
2018-06-12T09:52:13.025Z,68.72
2018-06-12T09:55:17.445Z,69.19
2018-06-12T09:58:21.827Z,68.50
2018-06-12T10:01:26.265Z,68.88
2018-06-12T10:04:30.665Z,68.08
2018-06-12T10:07:35.064Z,68.40
2018-06-12T10:10:39.445Z,68.45
2018-06-12T10:13:43.861Z,68.83
2018-06-12T10:16:48.288Z,66.56
2018-06-12T10:19:52.725Z,66.42
2018-06-12T10:22:57.146Z,66.51
2018-06-12T10:26:01.540Z,66.35
2018-06-12T10:29:06.228Z,66.14
2018-06-12T10:32:10.617Z,65.53
2018-06-12T10:35:15.021Z,65.30
2018-06-12T10:38:19.412Z,65.87
2018-06-12T10:41:23.774Z,66.70
2018-06-12T10:44:28.177Z,67.06
2018-06-12T10:47:32.533Z,65.81
2018-06-12T10:50:36.916Z,65.93
2018-06-12T10:53:41.348Z,65.75
2018-06-12T10:56:45.786Z,66.27
2018-06-12T10:59:49.897Z,67.30
2018-06-12T11:02:54.261Z,68.42
2018-06-12T11:05:58.660Z,69.20
2018-06-12T11:09:03.121Z,68.53
2018-06-12T11:12:07.517Z,69.35
2018-06-12T11:15:11.909Z,68.19
2018-06-12T11:18:16.349Z,68.60
2018-06-12T11:21:20.733Z,69.83
2018-06-12T11:24:25.138Z,69.71
2018-06-12T11:27:29.614Z,68.67
2018-06-12T11:30:34.014Z,70.12
2018-06-12T11:33:38.445Z,68.68
2018-06-12T11:36:42.856Z,69.08
2018-06-12T11:39:47.235Z,68.16
2018-06-12T11:42:51.651Z,66.85
2018-06-12T11:45:56.057Z,65.94
2018-06-12T11:49:00.464Z,66.14
2018-06-12T11:52:04.908Z,64.45
2018-06-12T11:55:09.320Z,64.53
2018-06-12T11:58:13.729Z,63.60
2018-06-12T12:01:18.122Z,64.45
2018-06-12T12:04:22.522Z,65.10
2018-06-12T12:07:26.924Z,65.84
2018-06-12T12:10:31.332Z,64.89
2018-06-12T12:13:35.731Z,66.05
2018-06-12T12:16:40.129Z,66.50
2018-06-12T12:19:44.528Z,66.43
2018-06-12T12:22:48.945Z,66.86
2018-06-12T12:25:53.341Z,66.38
2018-06-12T12:28:57.753Z,68.13
2018-06-12T12:32:02.254Z,67.15
2018-06-12T12:35:06.686Z,66.93
2018-06-12T12:38:11.081Z,67.60
2018-06-12T12:41:15.490Z,69.25
2018-06-12T12:44:19.884Z,68.80
2018-06-12T12:47:24.272Z,68.84
2018-06-12T12:50:28.641Z,67.98
2018-06-12T12:53:33.029Z,68.30
2018-06-12T12:56:37.422Z,67.70
2018-06-12T12:59:41.809Z,67.83
2018-06-12T13:02:46.205Z,69.40
2018-06-12T13:05:50.598Z,68.95
2018-06-12T13:08:55.037Z,68.15
2018-06-12T13:11:59.438Z,68.20
2018-06-12T13:15:03.837Z,67.94
2018-06-12T13:18:08.242Z,68.93
2018-06-12T13:21:12.638Z,69.32
2018-06-12T13:24:17.037Z,68.52
2018-06-12T13:27:21.435Z,68.75
2018-06-12T13:30:25.862Z,69.10
2018-06-12T13:33:30.333Z,69.56
2018-06-12T13:36:34.688Z,70.37
2018-06-12T13:39:39.068Z,70.99
2018-06-12T13:42:43.488Z,69.70
2018-06-12T13:45:47.889Z,71.02
2018-06-12T13:48:52.284Z,69.77
2018-06-12T13:51:56.685Z,69.14
2018-06-12T13:55:01.106Z,67.91
2018-06-12T13:58:05.513Z,68.36
2018-06-12T14:01:09.965Z,69.31
2018-06-12T14:04:14.350Z,68.73
2018-06-12T14:07:18.748Z,69.34
2018-06-12T14:10:23.133Z,69.09
2018-06-12T14:13:27.561Z,69.59
2018-06-12T14:16:31.912Z,70.17
2018-06-12T14:19:36.309Z,69.49
2018-06-12T14:22:40.665Z,70.06
2018-06-12T14:25:45.058Z,70.52
2018-06-12T14:28:49.425Z,70.82
2018-06-12T14:31:53.817Z,71.46
2018-06-12T14:34:58.176Z,71.28
2018-06-12T14:38:02.537Z,72.02
2018-06-12T14:41:06.987Z,75.33
2018-06-12T14:44:11.353Z,76.88
2018-06-12T14:47:15.747Z,77.69
2018-06-12T14:50:20.099Z,76.07
2018-06-12T14:53:24.548Z,76.83
2018-06-12T14:56:28.918Z,76.24
2018-06-12T14:59:33.306Z,76.46
2018-06-12T15:02:37.711Z,76.33
2018-06-12T15:05:42.101Z,76.56
2018-06-12T15:08:46.480Z,76.92
2018-06-12T15:11:50.837Z,76.45
2018-06-12T15:14:55.225Z,77.55
2018-06-12T15:17:59.581Z,76.92
2018-06-12T15:21:03.957Z,76.99
2018-06-12T15:24:08.307Z,76.15
2018-06-12T15:27:12.729Z,76.18
2018-06-12T15:30:17.089Z,76.54
2018-06-12T15:33:21.504Z,75.10
2018-06-12T15:36:25.860Z,74.83
2018-06-12T15:39:30.241Z,74.02
2018-06-12T15:42:34.609Z,73.48
2018-06-12T15:45:39.010Z,72.97
2018-06-12T15:48:43.351Z,74.14
2018-06-12T15:51:47.765Z,73.86
2018-06-12T15:54:52.154Z,73.70
2018-06-12T15:57:56.548Z,72.62
2018-06-12T16:01:00.938Z,73.38
2018-06-12T16:04:05.344Z,73.31
2018-06-12T16:07:09.701Z,73.78
2018-06-12T16:10:14.108Z,74.61
2018-06-12T16:13:18.499Z,74.39
2018-06-12T16:16:22.888Z,75.62
2018-06-12T16:19:27.294Z,76.91
2018-06-12T16:22:31.725Z,77.61
2018-06-12T16:25:36.090Z,76.90
2018-06-12T16:28:40.461Z,75.44
2018-06-12T16:31:44.838Z,75.61
2018-06-12T16:34:49.237Z,75.46
2018-06-12T16:37:53.663Z,75.11
2018-06-12T16:40:58.043Z,74.98
2018-06-12T16:44:02.440Z,75.30
2018-06-12T16:47:06.822Z,76.21
2018-06-12T16:50:11.230Z,75.49
2018-06-12T16:53:15.597Z,75.71
2018-06-12T16:56:20.055Z,74.87
2018-06-12T16:59:24.402Z,75.25
2018-06-12T17:02:28.845Z,74.81
2018-06-12T17:05:33.233Z,74.84
2018-06-12T17:08:38.328Z,74.05
2018-06-12T17:11:42.825Z,73.70
2018-06-12T17:14:47.224Z,74.33
2018-06-12T17:17:51.585Z,74.25
2018-06-12T17:20:55.937Z,74.47
2018-06-12T17:24:00.324Z,74.50
2018-06-12T17:27:04.732Z,73.92
2018-06-12T17:30:09.137Z,75.28
2018-06-12T17:33:13.546Z,74.34
2018-06-12T17:36:17.934Z,74.17
2018-06-12T17:39:22.373Z,75.34
2018-06-12T17:42:26.767Z,75.82
2018-06-12T17:45:31.178Z,74.99
2018-06-12T17:48:35.699Z,75.88
2018-06-12T17:51:40.876Z,75.42
2018-06-12T17:54:45.353Z,75.19
2018-06-12T17:57:49.736Z,75.49
2018-06-12T18:00:54.187Z,75.33
2018-06-12T18:03:58.585Z,75.91
2018-06-12T18:07:02.965Z,75.57
2018-06-12T18:10:07.410Z,75.39
2018-06-12T18:13:11.840Z,75.68
2018-06-12T18:16:16.206Z,75.81
2018-06-12T18:19:20.632Z,75.78
2018-06-12T18:22:25.049Z,75.97
2018-06-12T18:25:29.490Z,76.10
2018-06-12T18:28:33.869Z,76.20
2018-06-12T18:31:38.277Z,76.53
2018-06-12T18:34:42.622Z,77.02
2018-06-12T18:37:47.000Z,77.86
2018-06-12T18:40:51.353Z,78.42
2018-06-12T18:43:55.769Z,78.71
2018-06-12T18:47:00.105Z,78.77
2018-06-12T18:50:04.513Z,79.70
2018-06-12T18:53:08.868Z,80.32
2018-06-12T18:56:13.265Z,79.97
2018-06-12T18:59:17.637Z,79.96
2018-06-12T19:02:22.013Z,80.59
2018-06-12T19:05:26.370Z,80.00
2018-06-12T19:08:30.785Z,79.85
2018-06-12T19:11:35.179Z,79.82
2018-06-12T19:14:39.584Z,80.16
2018-06-12T19:17:43.957Z,79.73
2018-06-12T19:20:48.333Z,79.42
2018-06-12T19:23:52.710Z,79.84
2018-06-12T19:26:57.081Z,80.36
2018-06-12T19:30:01.486Z,80.22
2018-06-12T19:33:05.896Z,80.35
2018-06-12T19:36:10.274Z,80.28
2018-06-12T19:39:14.657Z,80.62
2018-06-12T19:42:19.021Z,81.19
2018-06-12T19:45:23.450Z,81.47
2018-06-12T19:48:27.814Z,80.89
2018-06-12T19:51:32.223Z,80.79
2018-06-12T19:54:36.629Z,81.68
2018-06-12T19:57:41.017Z,81.65
2018-06-12T20:00:45.431Z,82.12
2018-06-12T20:03:49.795Z,81.64
2018-06-12T20:06:54.193Z,82.25
2018-06-12T20:09:58.549Z,82.77
2018-06-12T20:13:02.979Z,83.35
2018-06-12T20:16:07.346Z,82.73
2018-06-12T20:19:11.701Z,82.45
2018-06-12T20:22:16.085Z,83.34
2018-06-12T20:25:20.444Z,83.51
2018-06-12T20:28:24.816Z,83.09
2018-06-12T20:31:29.214Z,83.91
2018-06-12T20:34:33.616Z,84.77
2018-06-12T20:37:37.996Z,85.23
2018-06-12T20:40:42.396Z,84.98
2018-06-12T20:43:46.756Z,84.81
2018-06-12T20:46:51.240Z,85.07
2018-06-12T20:49:55.553Z,85.50
2018-06-12T20:52:59.941Z,85.97
2018-06-12T20:56:04.337Z,85.77
2018-06-12T20:59:08.692Z,86.10
2018-06-12T21:02:13.050Z,87.24
2018-06-12T21:05:17.432Z,86.60
2018-06-12T21:08:21.808Z,86.63
2018-06-12T21:11:26.186Z,87.92
2018-06-12T21:14:30.543Z,87.73
2018-06-12T21:17:34.939Z,87.68
2018-06-12T21:20:39.272Z,88.04
2018-06-12T21:23:43.661Z,89.23
2018-06-12T21:26:48.121Z,88.78
2018-06-12T21:29:52.463Z,89.13
2018-06-12T21:32:56.825Z,89.28
2018-06-12T21:36:01.178Z,90.13
2018-06-12T21:39:08.141Z,89.58
2018-06-12T21:42:12.505Z,90.65
2018-06-12T21:45:16.864Z,90.01
2018-06-12T21:48:21.218Z,90.78
2018-06-12T21:51:25.586Z,90.49
2018-06-12T21:54:29.949Z,90.39
2018-06-12T21:57:34.325Z,90.04
2018-06-12T22:00:38.688Z,90.06
2018-06-12T22:03:43.110Z,89.75
2018-06-12T22:06:47.493Z,90.09
2018-06-12T22:09:51.915Z,89.97
2018-06-12T22:12:56.301Z,89.50
2018-06-12T22:16:00.677Z,89.87
2018-06-12T22:19:05.077Z,90.69
2018-06-12T22:22:09.446Z,89.94
2018-06-12T22:25:13.886Z,90.15
2018-06-12T22:28:18.241Z,89.50
2018-06-12T22:31:22.621Z,89.55
2018-06-12T22:34:26.999Z,90.24
2018-06-12T22:37:31.400Z,90.39
2018-06-12T22:40:35.780Z,89.62
2018-06-12T22:43:40.137Z,89.64
2018-06-12T22:46:44.509Z,89.74
2018-06-12T22:49:48.918Z,89.03
2018-06-12T22:52:53.309Z,89.84
2018-06-12T22:55:57.712Z,90.22
2018-06-12T22:59:02.088Z,89.55
2018-06-12T23:02:06.748Z,89.94
2018-06-12T23:05:11.137Z,89.77
2018-06-12T23:08:15.532Z,89.86
2018-06-12T23:11:19.916Z,90.18
2018-06-12T23:14:24.298Z,89.50
2018-06-12T23:17:28.698Z,89.04
2018-06-12T23:20:50.303Z,88.88
2018-06-12T23:23:54.697Z,88.59
2018-06-12T23:26:58.804Z,88.47
2018-06-12T23:30:03.178Z,87.78
2018-06-12T23:33:07.557Z,87.73
2018-06-12T23:36:11.896Z,87.92
2018-06-12T23:39:16.304Z,87.04
2018-06-12T23:42:20.656Z,87.38
2018-06-12T23:45:25.034Z,87.31
2018-06-12T23:59:24.142Z,85.53
